sensor_id;sensor_type;location;lat;lon;timestamp;pressure;altitude;pressure_sealevel;temperature
75431;BMP280;64127;51.488;5.462;2023-09-07T00:00:03;101693.47;;;24.41
75431;BMP280;64127;51.488;5.462;2023-09-07T00:02:37;101682.75;;;24.33
75431;BMP280;64127;51.488;5.462;2023-09-07T00:05:13;101692.56;;;24.33
75431;BMP280;64127;51.488;5.462;2023-09-07T00:07:46;101690.78;;;24.32
75431;BMP280;64127;51.488;5.462;2023-09-07T00:10:18;101692.56;;;24.25
75431;BMP280;64127;51.488;5.462;2023-09-07T00:12:50;101686.34;;;24.23
75431;BMP280;64127;51.488;5.462;2023-09-07T00:15:22;101691.72;;;24.20
75431;BMP280;64127;51.488;5.462;2023-09-07T00:17:56;101689.91;;;24.19
75431;BMP280;64127;51.488;5.462;2023-09-07T00:20:28;101681.00;;;24.14
75431;BMP280;64127;51.488;5.462;2023-09-07T00:23:01;101686.34;;;24.14
75431;BMP280;64127;51.488;5.462;2023-09-07T00:25:33;101686.28;;;24.08
75431;BMP280;64127;51.488;5.462;2023-09-07T00:28:05;101680.94;;;24.02
75431;BMP280;64127;51.488;5.462;2023-09-07T00:30:37;101684.53;;;23.99
75431;BMP280;64127;51.488;5.462;2023-09-07T00:33:10;101677.38;;;23.92
75431;BMP280;64127;51.488;5.462;2023-09-07T00:35:42;101684.53;;;23.95
75431;BMP280;64127;51.488;5.462;2023-09-07T00:38:14;101675.59;;;23.93
75431;BMP280;64127;51.488;5.462;2023-09-07T00:40:46;101670.25;;;23.90
75431;BMP280;64127;51.488;5.462;2023-09-07T00:43:19;101670.25;;;23.87
75431;BMP280;64127;51.488;5.462;2023-09-07T00:45:51;101673.81;;;23.83
75431;BMP280;64127;51.488;5.462;2023-09-07T00:48:23;101668.44;;;23.81
75431;BMP280;64127;51.488;5.462;2023-09-07T00:50:55;101668.44;;;23.80
75431;BMP280;64127;51.488;5.462;2023-09-07T00:53:27;101675.56;;;23.81
75431;BMP280;64127;51.488;5.462;2023-09-07T00:56:00;101680.94;;;23.78
75431;BMP280;64127;51.488;5.462;2023-09-07T00:58:32;101677.38;;;23.79
75431;BMP280;64127;51.488;5.462;2023-09-07T01:01:05;101685.41;;;23.79
75431;BMP280;64127;51.488;5.462;2023-09-07T01:03:37;101682.72;;;23.77
75431;BMP280;64127;51.488;5.462;2023-09-07T01:06:20;101685.41;;;23.71
75431;BMP280;64127;51.488;5.462;2023-09-07T01:08:57;101672.91;;;23.65
75431;BMP280;64127;51.488;5.462;2023-09-07T01:11:37;101675.59;;;23.65
75431;BMP280;64127;51.488;5.462;2023-09-07T01:14:10;101676.47;;;23.64
75431;BMP280;64127;51.488;5.462;2023-09-07T01:16:42;101676.47;;;23.63
75431;BMP280;64127;51.488;5.462;2023-09-07T01:19:15;101683.59;;;23.61
75431;BMP280;64127;51.488;5.462;2023-09-07T01:21:47;101682.69;;;23.57
75431;BMP280;64127;51.488;5.462;2023-09-07T01:24:22;101674.66;;;23.53
75431;BMP280;64127;51.488;5.462;2023-09-07T01:26:56;101672.88;;;23.50
75431;BMP280;64127;51.488;5.462;2023-09-07T01:29:29;101670.19;;;23.47
75431;BMP280;64127;51.488;5.462;2023-09-07T01:32:02;101665.66;;;23.40
75431;BMP280;64127;51.488;5.462;2023-09-07T01:34:34;101671.91;;;23.38
75431;BMP280;64127;51.488;5.462;2023-09-07T01:37:06;101671.03;;;23.34
75431;BMP280;64127;51.488;5.462;2023-09-07T01:39:38;101673.69;;;23.31
75431;BMP280;64127;51.488;5.462;2023-09-07T01:42:10;101669.22;;;23.29
75431;BMP280;64127;51.488;5.462;2023-09-07T01:44:42;101657.63;;;23.25
75431;BMP280;64127;51.488;5.462;2023-09-07T01:47:15;101666.53;;;23.21
75431;BMP280;64127;51.488;5.462;2023-09-07T01:49:47;101663.84;;;23.18
75431;BMP280;64127;51.488;5.462;2023-09-07T01:52:19;101668.28;;;23.16
75431;BMP280;64127;51.488;5.462;2023-09-07T01:54:52;101662.03;;;23.12
75431;BMP280;64127;51.488;5.462;2023-09-07T01:57:24;101662.91;;;23.10
75431;BMP280;64127;51.488;5.462;2023-09-07T01:59:56;101661.09;;;23.06
75431;BMP280;64127;51.488;5.462;2023-09-07T02:02:28;101659.31;;;23.02
75431;BMP280;64127;51.488;5.462;2023-09-07T02:05:00;101660.22;;;23.01
75431;BMP280;64127;51.488;5.462;2023-09-07T02:07:32;101657.53;;;22.98
75431;BMP280;64127;51.488;5.462;2023-09-07T02:10:05;101659.28;;;22.93
75431;BMP280;64127;51.488;5.462;2023-09-07T02:12:38;101656.59;;;22.91
75431;BMP280;64127;51.488;5.462;2023-09-07T02:15:10;101648.53;;;22.82
75431;BMP280;64127;51.488;5.462;2023-09-07T02:17:42;101659.25;;;22.84
75431;BMP280;64127;51.488;5.462;2023-09-07T02:20:17;101660.09;;;22.81
75431;BMP280;64127;51.488;5.462;2023-09-07T02:22:50;101662.78;;;22.77
75431;BMP280;64127;51.488;5.462;2023-09-07T02:25:22;101650.28;;;22.72
75431;BMP280;64127;51.488;5.462;2023-09-07T02:27:54;101659.19;;;22.73
75431;BMP280;64127;51.488;5.462;2023-09-07T02:30:27;101655.59;;;22.71
75431;BMP280;64127;51.488;5.462;2023-09-07T02:32:59;101660.97;;;22.69
75431;BMP280;64127;51.488;5.462;2023-09-07T02:35:31;101654.69;;;22.67
75431;BMP280;64127;51.488;5.462;2023-09-07T02:38:03;101656.50;;;22.67
75431;BMP280;64127;51.488;5.462;2023-09-07T02:40:43;101656.44;;;22.64
75431;BMP280;64127;51.488;5.462;2023-09-07T02:43:15;101654.66;;;22.64
75431;BMP280;64127;51.488;5.462;2023-09-07T02:45:49;101643.91;;;22.55
75431;BMP280;64127;51.488;5.462;2023-09-07T02:48:22;101651.06;;;22.58
75431;BMP280;64127;51.488;5.462;2023-09-07T02:50:54;101655.50;;;22.57
75431;BMP280;64127;51.488;5.462;2023-09-07T02:53:26;101659.97;;;22.55
75431;BMP280;64127;51.488;5.462;2023-09-07T02:55:58;101651.94;;;22.52
75431;BMP280;64127;51.488;5.462;2023-09-07T02:58:31;101654.59;;;22.49
75431;BMP280;64127;51.488;5.462;2023-09-07T03:01:06;101659.94;;;22.49
75431;BMP280;64127;51.488;5.462;2023-09-07T03:03:41;101651.91;;;22.46
75431;BMP280;64127;51.488;5.462;2023-09-07T03:06:15;101649.25;;;22.49
75431;BMP280;64127;51.488;5.462;2023-09-07T03:08:50;101646.56;;;22.49
75431;BMP280;64127;51.488;5.462;2023-09-07T03:11:23;101645.66;;;22.49
75431;BMP280;64127;51.488;5.462;2023-09-07T03:13:55;101653.69;;;22.50
75431;BMP280;64127;51.488;5.462;2023-09-07T03:16:28;101652.81;;;22.50
75431;BMP280;64127;51.488;5.462;2023-09-07T03:19:02;101649.22;;;22.46
75431;BMP280;64127;51.488;5.462;2023-09-07T03:21:34;101660.81;;;22.48
75431;BMP280;64127;51.488;5.462;2023-09-07T03:24:07;101655.47;;;22.48
75431;BMP280;64127;51.488;5.462;2023-09-07T03:26:39;101658.09;;;22.47
75431;BMP280;64127;51.488;5.462;2023-09-07T03:29:11;101651.91;;;22.46
75431;BMP280;64127;51.488;5.462;2023-09-07T03:31:43;101654.53;;;22.45
75431;BMP280;64127;51.488;5.462;2023-09-07T03:34:15;101644.72;;;22.39
75431;BMP280;64127;51.488;5.462;2023-09-07T03:36:47;101658.09;;;22.41
75431;BMP280;64127;51.488;5.462;2023-09-07T03:39:19;101654.53;;;22.42
75431;BMP280;64127;51.488;5.462;2023-09-07T03:41:54;101645.59;;;22.35
75431;BMP280;64127;51.488;5.462;2023-09-07T03:44:26;101662.53;;;22.40
75431;BMP280;64127;51.488;5.462;2023-09-07T03:46:58;101666.13;;;22.39
75431;BMP280;64127;51.488;5.462;2023-09-07T03:49:30;101658.06;;;22.35
75431;BMP280;64127;51.488;5.462;2023-09-07T03:52:02;101667.84;;;22.34
75431;BMP280;64127;51.488;5.462;2023-09-07T03:54:35;101658.00;;;22.26
75431;BMP280;64127;51.488;5.462;2023-09-07T03:57:07;101664.22;;;22.26
75431;BMP280;64127;51.488;5.462;2023-09-07T03:59:39;101658.84;;;22.20
75431;BMP280;64127;51.488;5.462;2023-09-07T04:02:11;101666.84;;;22.18
75431;BMP280;64127;51.488;5.462;2023-09-07T04:04:48;101636.44;;;22.03
75431;BMP280;64127;51.488;5.462;2023-09-07T04:07:21;101667.69;;;22.13
75431;BMP280;64127;51.488;5.462;2023-09-07T04:09:53;101669.47;;;22.11
75431;BMP280;64127;51.488;5.462;2023-09-07T04:12:25;101668.56;;;22.10
75431;BMP280;64127;51.488;5.462;2023-09-07T04:14:57;101656.94;;;22.04
75431;BMP280;64127;51.488;5.462;2023-09-07T04:17:29;101664.94;;;22.02
75431;BMP280;64127;51.488;5.462;2023-09-07T04:20:02;101671.16;;;22.00
75431;BMP280;64127;51.488;5.462;2023-09-07T04:22:35;101664.88;;;21.96
75431;BMP280;64127;51.488;5.462;2023-09-07T04:25:07;101665.78;;;21.94
75431;BMP280;64127;51.488;5.462;2023-09-07T04:27:39;101662.13;;;21.89
75431;BMP280;64127;51.488;5.462;2023-09-07T04:30:12;101665.69;;;21.88
75431;BMP280;64127;51.488;5.462;2023-09-07T04:32:44;101667.44;;;21.86
75431;BMP280;64127;51.488;5.462;2023-09-07T04:35:16;101650.41;;;21.70
75431;BMP280;64127;51.488;5.462;2023-09-07T04:37:48;101667.38;;;21.80
75431;BMP280;64127;51.488;5.462;2023-09-07T04:40:20;101675.38;;;21.77
75431;BMP280;64127;51.488;5.462;2023-09-07T04:42:53;101674.47;;;21.76
75431;BMP280;64127;51.488;5.462;2023-09-07T04:45:25;101674.44;;;21.71
75431;BMP280;64127;51.488;5.462;2023-09-07T04:47:57;101678.88;;;21.69
75431;BMP280;64127;51.488;5.462;2023-09-07T04:50:29;101669.94;;;21.66
75431;BMP280;64127;51.488;5.462;2023-09-07T04:53:01;101676.28;;;21.82
75431;BMP280;64127;51.488;5.462;2023-09-07T04:55:37;101671.66;;;21.59
75431;BMP280;64127;51.488;5.462;2023-09-07T04:58:10;101667.16;;;21.55
75431;BMP280;64127;51.488;5.462;2023-09-07T05:00:42;101675.16;;;21.54
75431;BMP280;64127;51.488;5.462;2023-09-07T05:03:14;101668.00;;;21.51
75431;BMP280;64127;51.488;5.462;2023-09-07T05:05:52;101663.50;;;21.47
75431;BMP280;64127;51.488;5.462;2023-09-07T05:08:25;101678.63;;;21.45
75431;BMP280;64127;51.488;5.462;2023-09-07T05:10:59;101685.72;;;21.45
75431;BMP280;64127;51.488;5.462;2023-09-07T05:13:31;101683.94;;;21.42
75431;BMP280;64127;51.488;5.462;2023-09-07T05:16:04;101681.22;;;21.36
75431;BMP280;64127;51.488;5.462;2023-09-07T05:18:36;101686.53;;;21.36
75431;BMP280;64127;51.488;5.462;2023-09-07T05:21:13;101685.63;;;21.33
75431;BMP280;64127;51.488;5.462;2023-09-07T05:23:46;101687.38;;;21.32
75431;BMP280;64127;51.488;5.462;2023-09-07T05:26:22;101681.09;;;21.26
75431;BMP280;64127;51.488;5.462;2023-09-07T05:28:57;101696.22;;;21.28
75431;BMP280;64127;51.488;5.462;2023-09-07T05:31:29;101691.75;;;21.27
75431;BMP280;64127;51.488;5.462;2023-09-07T05:34:01;101700.63;;;21.24
75431;BMP280;64127;51.488;5.462;2023-09-07T05:36:33;101688.13;;;21.20
75431;BMP280;64127;51.488;5.462;2023-09-07T05:39:05;101693.50;;;21.22
75431;BMP280;64127;51.488;5.462;2023-09-07T05:41:38;101697.06;;;21.24
75431;BMP280;64127;51.488;5.462;2023-09-07T05:44:10;101704.19;;;21.25
75431;BMP280;64127;51.488;5.462;2023-09-07T05:46:42;101709.56;;;21.28
75431;BMP280;64127;51.488;5.462;2023-09-07T05:49:14;101705.13;;;21.29
75431;BMP280;64127;51.488;5.462;2023-09-07T05:51:46;101702.53;;;21.33
75431;BMP280;64127;51.488;5.462;2023-09-07T05:54:18;101709.66;;;21.37
75431;BMP280;64127;51.488;5.462;2023-09-07T05:56:50;101704.41;;;21.43
75431;BMP280;64127;51.488;5.462;2023-09-07T05:59:22;101702.69;;;21.51
75431;BMP280;64127;51.488;5.462;2023-09-07T06:01:54;101702.81;;;21.62
75431;BMP280;64127;51.488;5.462;2023-09-07T06:04:26;101706.53;;;21.76
75431;BMP280;64127;51.488;5.462;2023-09-07T06:06:59;101717.38;;;21.90
75431;BMP280;64127;51.488;5.462;2023-09-07T06:09:31;101717.50;;;22.03
75431;BMP280;64127;51.488;5.462;2023-09-07T06:12:03;101719.38;;;22.16
75431;BMP280;64127;51.488;5.462;2023-09-07T06:14:36;101722.16;;;22.27
75431;BMP280;64127;51.488;5.462;2023-09-07T06:17:08;101712.44;;;22.38
75431;BMP280;64127;51.488;5.462;2023-09-07T06:19:40;101717.00;;;22.53
75431;BMP280;64127;51.488;5.462;2023-09-07T06:22:12;101718.84;;;22.64
75431;BMP280;64127;51.488;5.462;2023-09-07T06:24:44;101716.28;;;22.77
75431;BMP280;64127;51.488;5.462;2023-09-07T06:27:16;101722.59;;;22.91
75431;BMP280;64127;51.488;5.462;2023-09-07T06:29:49;101709.22;;;22.95
75431;BMP280;64127;51.488;5.462;2023-09-07T06:32:22;101725.34;;;23.09
75431;BMP280;64127;51.488;5.462;2023-09-07T06:34:54;101721.81;;;23.19
75431;BMP280;64127;51.488;5.462;2023-09-07T06:37:26;101725.47;;;23.29
75431;BMP280;64127;51.488;5.462;2023-09-07T06:39:59;101721.91;;;23.37
75431;BMP280;64127;51.488;5.462;2023-09-07T06:42:31;101728.22;;;23.45
75431;BMP280;64127;51.488;5.462;2023-09-07T06:45:03;101734.47;;;23.56
75431;BMP280;64127;51.488;5.462;2023-09-07T06:47:36;101725.59;;;23.62
75431;BMP280;64127;51.488;5.462;2023-09-07T06:50:08;101723.81;;;23.71
75431;BMP280;64127;51.488;5.462;2023-09-07T06:52:40;101725.59;;;23.76
75431;BMP280;64127;51.488;5.462;2023-09-07T06:55:12;101732.75;;;23.83
75431;BMP280;64127;51.488;5.462;2023-09-07T06:57:44;101727.41;;;23.86
75431;BMP280;64127;51.488;5.462;2023-09-07T07:00:16;101720.28;;;23.97
75431;BMP280;64127;51.488;5.462;2023-09-07T07:02:48;101728.31;;;24.07
75431;BMP280;64127;51.488;5.462;2023-09-07T07:05:20;101729.25;;;24.12
75431;BMP280;64127;51.488;5.462;2023-09-07T07:07:55;101716.72;;;24.13
75431;BMP280;64127;51.488;5.462;2023-09-07T07:10:27;101721.22;;;24.17
75431;BMP280;64127;51.488;5.462;2023-09-07T07:12:59;101731.03;;;24.24
75431;BMP280;64127;51.488;5.462;2023-09-07T07:15:31;101732.81;;;24.34
75431;BMP280;64127;51.488;5.462;2023-09-07T07:18:04;101734.59;;;24.41
75431;BMP280;64127;51.488;5.462;2023-09-07T07:20:42;101739.97;;;24.44
75431;BMP280;64127;51.488;5.462;2023-09-07T07:23:15;101739.06;;;24.48
75431;BMP280;64127;51.488;5.462;2023-09-07T07:25:47;101733.69;;;24.59
75431;BMP280;64127;51.488;5.462;2023-09-07T07:28:19;101738.13;;;24.70
75431;BMP280;64127;51.488;5.462;2023-09-07T07:30:51;101731.84;;;24.81
75431;BMP280;64127;51.488;5.462;2023-09-07T07:33:25;101728.28;;;24.88
75431;BMP280;64127;51.488;5.462;2023-09-07T07:35:57;101731.84;;;24.96
75431;BMP280;64127;51.488;5.462;2023-09-07T07:38:30;101724.63;;;25.04
75431;BMP280;64127;51.488;5.462;2023-09-07T07:41:02;101728.19;;;25.10
75431;BMP280;64127;51.488;5.462;2023-09-07T07:43:34;101732.63;;;25.19
75431;BMP280;64127;51.488;5.462;2023-09-07T07:46:08;101730.81;;;25.27
75431;BMP280;64127;51.488;5.462;2023-09-07T07:48:40;101729.91;;;25.30
75431;BMP280;64127;51.488;5.462;2023-09-07T07:51:12;101730.78;;;25.33
75431;BMP280;64127;51.488;5.462;2023-09-07T07:53:44;101738.78;;;25.42
75431;BMP280;64127;51.488;5.462;2023-09-07T07:56:18;101719.97;;;25.42
75431;BMP280;64127;51.488;5.462;2023-09-07T07:58:50;101728.00;;;25.56
75431;BMP280;64127;51.488;5.462;2023-09-07T08:01:24;101712.69;;;25.65
75431;BMP280;64127;51.488;5.462;2023-09-07T08:03:58;101726.94;;;25.80
75431;BMP280;64127;51.488;5.462;2023-09-07T08:06:35;101717.09;;;25.82
75431;BMP280;64127;51.488;5.462;2023-09-07T08:09:07;101706.28;;;25.86
75431;BMP280;64127;51.488;5.462;2023-09-07T08:11:40;101710.75;;;25.92
75431;BMP280;64127;51.488;5.462;2023-09-07T08:14:12;101712.50;;;25.93
75431;BMP280;64127;51.488;5.462;2023-09-07T08:16:44;101708.88;;;26.00
75431;BMP280;64127;51.488;5.462;2023-09-07T08:19:16;101702.53;;;26.07
75431;BMP280;64127;51.488;5.462;2023-09-07T08:21:48;101696.19;;;26.17
75431;BMP280;64127;51.488;5.462;2023-09-07T08:24:20;101697.91;;;26.27
75431;BMP280;64127;51.488;5.462;2023-09-07T08:26:53;101693.28;;;26.41
75431;BMP280;64127;51.488;5.462;2023-09-07T08:29:27;101686.00;;;26.54
75431;BMP280;64127;51.488;5.462;2023-09-07T08:31:59;101682.28;;;26.64
75431;BMP280;64127;51.488;5.462;2023-09-07T08:34:33;101685.81;;;26.69
75431;BMP280;64127;51.488;5.462;2023-09-07T08:37:08;101678.53;;;26.76
75431;BMP280;64127;51.488;5.462;2023-09-07T08:39:42;101683.78;;;26.91
75431;BMP280;64127;51.488;5.462;2023-09-07T08:42:15;101686.44;;;26.94
75431;BMP280;64127;51.488;5.462;2023-09-07T08:44:51;101668.50;;;26.93
75431;BMP280;64127;51.488;5.462;2023-09-07T08:47:24;101680.78;;;27.15
75431;BMP280;64127;51.488;5.462;2023-09-07T08:49:57;101681.56;;;27.25
75431;BMP280;64127;51.488;5.462;2023-09-07T08:52:29;101679.66;;;27.33
75431;BMP280;64127;51.488;5.462;2023-09-07T08:55:03;101680.41;;;27.42
75431;BMP280;64127;51.488;5.462;2023-09-07T08:57:39;101664.16;;;27.47
75431;BMP280;64127;51.488;5.462;2023-09-07T09:00:12;101669.34;;;27.60
75431;BMP280;64127;51.488;5.462;2023-09-07T09:02:48;101640.63;;;27.59
75431;BMP280;64127;51.488;5.462;2023-09-07T09:05:30;101667.25;;;27.81
75431;BMP280;64127;51.488;5.462;2023-09-07T09:08:03;101659.91;;;27.90
75431;BMP280;64127;51.488;5.462;2023-09-07T09:10:39;101659.84;;;27.92
75431;BMP280;64127;51.488;5.462;2023-09-07T09:13:12;101669.81;;;27.90
75431;BMP280;64127;51.488;5.462;2023-09-07T09:15:44;101664.34;;;27.91
75431;BMP280;64127;51.488;5.462;2023-09-07T09:18:16;101665.97;;;28.04
75431;BMP280;64127;51.488;5.462;2023-09-07T09:20:48;101659.41;;;28.20
75431;BMP280;64127;51.488;5.462;2023-09-07T09:23:20;101668.03;;;28.39
75431;BMP280;64127;51.488;5.462;2023-09-07T09:25:52;101666.97;;;28.49
75431;BMP280;64127;51.488;5.462;2023-09-07T09:28:26;101664.06;;;28.58
75431;BMP280;64127;51.488;5.462;2023-09-07T09:31:01;101655.00;;;28.62
75431;BMP280;64127;51.488;5.462;2023-09-07T09:33:34;101660.25;;;28.70
75431;BMP280;64127;51.488;5.462;2023-09-07T09:36:07;101657.53;;;28.73
75431;BMP280;64127;51.488;5.462;2023-09-07T09:38:40;101650.13;;;28.81
75431;BMP280;64127;51.488;5.462;2023-09-07T09:41:20;101656.19;;;28.94
75431;BMP280;64127;51.488;5.462;2023-09-07T09:43:56;101653.28;;;29.03
75431;BMP280;64127;51.488;5.462;2023-09-07T09:46:31;101657.56;;;29.13
75431;BMP280;64127;51.488;5.462;2023-09-07T09:49:05;101651.94;;;29.22
75431;BMP280;64127;51.488;5.462;2023-09-07T09:51:39;101639.28;;;29.24
75431;BMP280;64127;51.488;5.462;2023-09-07T09:54:13;101639.03;;;29.36
75431;BMP280;64127;51.488;5.462;2023-09-07T09:56:45;101637.38;;;29.29
75431;BMP280;64127;51.488;5.462;2023-09-07T09:59:18;101637.19;;;29.38
75431;BMP280;64127;51.488;5.462;2023-09-07T10:01:53;101636.88;;;29.50
75431;BMP280;64127;51.488;5.462;2023-09-07T10:04:26;101629.47;;;29.58
75431;BMP280;64127;51.488;5.462;2023-09-07T10:07:01;101629.25;;;29.67
75431;BMP280;64127;51.488;5.462;2023-09-07T10:09:38;101627.25;;;29.76
75431;BMP280;64127;51.488;5.462;2023-09-07T10:12:13;101627.03;;;29.85
75431;BMP280;64127;51.488;5.462;2023-09-07T10:14:48;101638.50;;;29.94
75431;BMP280;64127;51.488;5.462;2023-09-07T10:17:23;101634.88;;;29.95
75431;BMP280;64127;51.488;5.462;2023-09-07T10:20:05;101631.81;;;30.09
75431;BMP280;64127;51.488;5.462;2023-09-07T10:22:37;101630.63;;;30.19
75431;BMP280;64127;51.488;5.462;2023-09-07T10:25:22;101634.03;;;30.27
75431;BMP280;64127;51.488;5.462;2023-09-07T10:27:54;101627.56;;;30.31
75431;BMP280;64127;51.488;5.462;2023-09-07T10:30:26;101623.78;;;30.38
75431;BMP280;64127;51.488;5.462;2023-09-07T10:32:59;101622.69;;;30.45
75431;BMP280;64127;51.488;5.462;2023-09-07T10:35:35;101622.41;;;30.56
75431;BMP280;64127;51.488;5.462;2023-09-07T10:38:13;101612.28;;;30.62
75431;BMP280;64127;51.488;5.462;2023-09-07T10:40:47;101598.63;;;30.65
75431;BMP280;64127;51.488;5.462;2023-09-07T10:43:20;101609.94;;;30.80
75431;BMP280;64127;51.488;5.462;2023-09-07T10:45:53;101603.41;;;30.87
75431;BMP280;64127;51.488;5.462;2023-09-07T10:48:30;101599.69;;;30.91
75431;BMP280;64127;51.488;5.462;2023-09-07T10:51:03;101596.81;;;30.97
75431;BMP280;64127;51.488;5.462;2023-09-07T10:53:35;101590.13;;;31.08
75431;BMP280;64127;51.488;5.462;2023-09-07T10:56:07;101587.88;;;31.23
75431;BMP280;64127;51.488;5.462;2023-09-07T10:58:41;101581.25;;;31.31
75431;BMP280;64127;51.488;5.462;2023-09-07T11:01:14;101577.59;;;31.32
75431;BMP280;64127;51.488;5.462;2023-09-07T11:03:48;101583.56;;;31.43
75431;BMP280;64127;51.488;5.462;2023-09-07T11:06:21;101575.34;;;31.45
75431;BMP280;64127;51.488;5.462;2023-09-07T11:09:02;101576.31;;;31.44
75431;BMP280;64127;51.488;5.462;2023-09-07T11:11:36;101576.31;;;31.44
75431;BMP280;64127;51.488;5.462;2023-09-07T11:14:08;101577.84;;;31.52
75431;BMP280;64127;51.488;5.462;2023-09-07T11:16:41;101579.22;;;31.65
75431;BMP280;64127;51.488;5.462;2023-09-07T11:19:15;101576.38;;;31.68
75431;BMP280;64127;51.488;5.462;2023-09-07T11:21:47;101575.41;;;31.71
75431;BMP280;64127;51.488;5.462;2023-09-07T11:24:19;101577.94;;;31.76
75431;BMP280;64127;51.488;5.462;2023-09-07T11:26:51;101559.28;;;31.66
75431;BMP280;64127;51.488;5.462;2023-09-07T11:29:25;101584.16;;;31.79
75431;BMP280;64127;51.488;5.462;2023-09-07T11:32:08;101565.03;;;31.82
75431;BMP280;64127;51.488;5.462;2023-09-07T11:34:53;101576.44;;;31.93
75431;BMP280;64127;51.488;5.462;2023-09-07T11:37:31;101577.88;;;32.03
75431;BMP280;64127;51.488;5.462;2023-09-07T11:40:04;101573.25;;;32.07
75431;BMP280;64127;51.488;5.462;2023-09-07T11:42:42;101565.66;;;32.16
75431;BMP280;64127;51.488;5.462;2023-09-07T11:45:15;101577.03;;;32.28
75431;BMP280;64127;51.488;5.462;2023-09-07T11:47:47;101568.72;;;32.32
75431;BMP280;64127;51.488;5.462;2023-09-07T11:50:19;101550.75;;;32.28
75431;BMP280;64127;51.488;5.462;2023-09-07T11:52:52;101561.25;;;32.37
75431;BMP280;64127;51.488;5.462;2023-09-07T11:55:24;101557.66;;;32.37
75431;BMP280;64127;51.488;5.462;2023-09-07T11:57:57;101551.94;;;32.44
75431;BMP280;64127;51.488;5.462;2023-09-07T12:00:29;101558.91;;;32.51
75431;BMP280;64127;51.488;5.462;2023-09-07T12:03:03;101554.38;;;32.52
75431;BMP280;64127;51.488;5.462;2023-09-07T12:05:36;101553.63;;;32.47
75431;BMP280;64127;51.488;5.462;2023-09-07T12:08:09;101555.50;;;32.46
75431;BMP280;64127;51.488;5.462;2023-09-07T12:10:41;101543.53;;;32.50
75431;BMP280;64127;51.488;5.462;2023-09-07T12:13:13;101551.16;;;32.65
75431;BMP280;64127;51.488;5.462;2023-09-07T12:15:45;101551.75;;;32.74
75431;BMP280;64127;51.488;5.462;2023-09-07T12:18:17;101543.47;;;32.77
75431;BMP280;64127;51.488;5.462;2023-09-07T12:20:50;101543.47;;;32.77
75431;BMP280;64127;51.488;5.462;2023-09-07T12:23:22;101541.69;;;32.76
75431;BMP280;64127;51.488;5.462;2023-09-07T12:25:55;101539.78;;;32.78
75431;BMP280;64127;51.488;5.462;2023-09-07T12:28:27;101536.13;;;32.79
75431;BMP280;64127;51.488;5.462;2023-09-07T12:30:59;101526.91;;;32.83
75431;BMP280;64127;51.488;5.462;2023-09-07T12:33:31;101532.91;;;32.91
75431;BMP280;64127;51.488;5.462;2023-09-07T12:36:05;101524.56;;;32.95
75431;BMP280;64127;51.488;5.462;2023-09-07T12:38:41;101533.47;;;32.99
75431;BMP280;64127;51.488;5.462;2023-09-07T12:41:13;101517.03;;;33.02
75431;BMP280;64127;51.488;5.462;2023-09-07T12:43:45;101517.66;;;33.10
75431;BMP280;64127;51.488;5.462;2023-09-07T12:46:18;101520.19;;;33.14
75431;BMP280;64127;51.488;5.462;2023-09-07T12:48:50;101518.22;;;33.18
75431;BMP280;64127;51.488;5.462;2023-09-07T12:51:22;101526.19;;;33.23
75431;BMP280;64127;51.488;5.462;2023-09-07T12:53:54;101514.31;;;33.25
75431;BMP280;64127;51.488;5.462;2023-09-07T12:56:26;101519.63;;;33.28
75431;BMP280;64127;51.488;5.462;2023-09-07T12:58:59;101515.06;;;33.29
75431;BMP280;64127;51.488;5.462;2023-09-07T13:01:31;101507.97;;;33.25
75431;BMP280;64127;51.488;5.462;2023-09-07T13:04:05;101515.88;;;33.31
75431;BMP280;64127;51.488;5.462;2023-09-07T13:06:37;101507.44;;;33.37
75431;BMP280;64127;51.488;5.462;2023-09-07T13:09:09;101500.97;;;33.39
75431;BMP280;64127;51.488;5.462;2023-09-07T13:11:43;101507.69;;;33.52
75431;BMP280;64127;51.488;5.462;2023-09-07T13:14:15;101495.47;;;33.62
75431;BMP280;64127;51.488;5.462;2023-09-07T13:16:47;101493.28;;;33.71
75431;BMP280;64127;51.488;5.462;2023-09-07T13:19:19;101497.50;;;33.78
75431;BMP280;64127;51.488;5.462;2023-09-07T13:21:51;101477.69;;;33.74
75431;BMP280;64127;51.488;5.462;2023-09-07T13:24:23;101493.81;;;33.79
75431;BMP280;64127;51.488;5.462;2023-09-07T13:26:55;101482.31;;;33.72
75431;BMP280;64127;51.488;5.462;2023-09-07T13:29:28;101466.44;;;33.61
75431;BMP280;64127;51.488;5.462;2023-09-07T13:32:00;101480.25;;;33.77
75431;BMP280;64127;51.488;5.462;2023-09-07T13:34:32;101477.63;;;33.76
75431;BMP280;64127;51.488;5.462;2023-09-07T13:37:04;101479.94;;;33.64
75431;BMP280;64127;51.488;5.462;2023-09-07T13:39:36;101471.16;;;33.56
75431;BMP280;64127;51.488;5.462;2023-09-07T13:42:08;101475.44;;;33.63
75431;BMP280;64127;51.488;5.462;2023-09-07T13:44:40;101469.66;;;33.71
75431;BMP280;64127;51.488;5.462;2023-09-07T13:47:13;101479.13;;;33.83
75431;BMP280;64127;51.488;5.462;2023-09-07T13:49:45;101475.44;;;33.84
75431;BMP280;64127;51.488;5.462;2023-09-07T13:52:17;101474.13;;;33.92
75431;BMP280;64127;51.488;5.462;2023-09-07T13:54:49;101478.69;;;33.92
75431;BMP280;64127;51.488;5.462;2023-09-07T13:57:21;101475.03;;;33.93
75431;BMP280;64127;51.488;5.462;2023-09-07T13:59:54;101467.50;;;33.98
75431;BMP280;64127;51.488;5.462;2023-09-07T14:02:26;101454.16;;;33.92
75431;BMP280;64127;51.488;5.462;2023-09-07T14:04:59;101471.34;;;33.94
75431;BMP280;64127;51.488;5.462;2023-09-07T14:07:31;101469.44;;;33.96
75431;BMP280;64127;51.488;5.462;2023-09-07T14:10:04;101469.13;;;34.02
75431;BMP280;64127;51.488;5.462;2023-09-07T14:12:36;101459.88;;;34.06
75431;BMP280;64127;51.488;5.462;2023-09-07T14:15:08;101455.22;;;34.08
75431;BMP280;64127;51.488;5.462;2023-09-07T14:17:40;101454.16;;;34.12
75431;BMP280;64127;51.488;5.462;2023-09-07T14:20:12;101452.13;;;34.17
75431;BMP280;64127;51.488;5.462;2023-09-07T14:22:45;101447.41;;;34.21
75431;BMP280;64127;51.488;5.462;2023-09-07T14:25:17;101450.72;;;34.27
75431;BMP280;64127;51.488;5.462;2023-09-07T14:27:49;101448.00;;;34.27